Time;durP1;ratioP1;P1;durP2;ratioP2;P2;SDS_P1;SDS_P2;PMS_P1;PMS_P2;Temp;Humidity;BMP_temperature;BMP_pressure;BME280_temperature;BME280_humidity;BME280_pressure;Samples;Min_cycle;Max_cycle;Signal;HPM_P1;HPM_P2
2023/12/22 00:00:57;;;;;;;8.48;1.73;;;;;;;5.64;100.00;100233.53;5176635;27;20122;-74
2023/12/22 00:03:24;;;;;;;4.30;1.38;;;;;;;5.60;100.00;100245.34;5175603;27;20042;-73
2023/12/22 00:05:50;;;;;;;10.32;1.45;;;;;;;5.55;100.00;100230.78;5175427;27;20517;-73
2023/12/22 00:08:17;;;;;;;8.30;1.25;;;;;;;5.50;100.00;100241.84;5176345;27;20126;-74
2023/12/22 00:10:43;;;;;;;5.78;1.35;;;;;;;5.44;100.00;100242.75;5176220;27;20042;-73
2023/12/22 00:13:10;;;;;;;6.15;1.10;;;;;;;5.37;100.00;100264.81;5176230;27;20047;-74
2023/12/22 00:15:36;;;;;;;9.38;1.20;;;;;;;5.33;100.00;100270.16;5175982;27;20175;-74
2023/12/22 00:18:03;;;;;;;2.10;1.10;;;;;;;5.26;100.00;100245.84;5177455;27;20074;-74
2023/12/22 00:20:30;;;;;;;2.80;0.70;;;;;;;5.19;100.00;100259.22;5176868;27;20047;-74
2023/12/22 00:22:56;;;;;;;2.10;1.08;;;;;;;5.15;100.00;100267.22;5177064;27;20043;-74
2023/12/22 00:25:23;;;;;;;2.83;0.57;;;;;;;5.10;100.00;100275.63;5175597;27;20088;-75
2023/12/22 00:27:50;;;;;;;2.47;0.82;;;;;;;5.05;100.00;100251.63;5178840;27;20039;-74
2023/12/22 00:30:17;;;;;;;1.48;0.90;;;;;;;5.02;100.00;100256.56;5180503;27;20478;-75
2023/12/22 00:32:43;;;;;;;2.58;0.65;;;;;;;5.03;100.00;100271.25;5179343;27;20058;-75
2023/12/22 00:35:10;;;;;;;2.55;0.80;;;;;;;5.01;100.00;100283.38;5179559;27;20074;-74
2023/12/22 00:37:36;;;;;;;3.70;1.00;;;;;;;4.98;100.00;100271.00;5176525;27;20050;-74
2023/12/22 00:40:05;;;;;;;3.97;0.90;;;;;;;4.95;100.00;100279.75;5175437;27;20050;-74
2023/12/22 00:42:31;;;;;;;3.50;0.40;;;;;;;4.95;100.00;100263.91;5157448;27;20078;-74
2023/12/22 00:44:58;;;;;;;4.55;0.65;;;;;;;4.95;100.00;100277.09;5175432;27;20077;-74
2023/12/22 00:47:24;;;;;;;2.97;0.73;;;;;;;4.94;100.00;100255.25;5175376;27;20117;-74
2023/12/22 00:49:51;;;;;;;4.70;1.02;;;;;;;4.93;100.00;100261.69;5177216;27;20045;-74
2023/12/22 00:52:18;;;;;;;3.33;0.63;;;;;;;4.92;100.00;100246.25;5179725;27;20039;-74
2023/12/22 00:54:44;;;;;;;3.78;0.75;;;;;;;4.91;100.00;100269.25;5178961;27;20039;-74
2023/12/22 00:57:12;;;;;;;4.20;0.90;;;;;;;4.91;100.00;100274.53;5178867;27;20039;-74
2023/12/22 00:59:42;;;;;;;2.55;0.98;;;;;;;4.90;100.00;100278.31;5179405;27;20047;-74
2023/12/22 01:02:08;;;;;;;3.55;1.00;;;;;;;4.90;100.00;100285.50;5179525;27;20039;-74
2023/12/22 01:04:35;;;;;;;2.75;0.95;;;;;;;4.91;100.00;100287.72;5178685;27;20055;-74
2023/12/22 01:07:02;;;;;;;2.47;0.82;;;;;;;4.93;100.00;100293.34;5176944;27;20038;-74
2023/12/22 01:09:28;;;;;;;4.78;1.02;;;;;;;4.94;100.00;100294.06;5178037;27;20122;-74
2023/12/22 01:11:55;;;;;;;5.20;1.30;;;;;;;4.95;100.00;100306.84;5179441;27;20121;-74
2023/12/22 01:14:21;;;;;;;3.20;0.80;;;;;;;4.96;100.00;100308.34;5179073;27;20122;-74
2023/12/22 01:16:48;;;;;;;6.47;1.13;;;;;;;4.97;100.00;100306.44;5178568;27;20043;-74
2023/12/22 01:19:15;;;;;;;5.38;0.98;;;;;;;4.96;100.00;100300.44;5178733;27;20046;-74
2023/12/22 01:21:41;;;;;;;8.90;1.08;;;;;;;4.97;100.00;100299.28;5179206;27;20114;-74
2023/12/22 01:24:08;;;;;;;8.80;1.30;;;;;;;4.99;100.00;100304.16;5178789;27;20116;-74
2023/12/22 01:26:34;;;;;;;7.60;1.15;;;;;;;4.99;100.00;100291.69;5174963;27;20556;-74
2023/12/22 01:29:01;;;;;;;4.35;0.82;;;;;;;4.99;100.00;100309.41;5178346;27;20038;-74
2023/12/22 01:31:28;;;;;;;7.53;1.02;;;;;;;4.99;100.00;100312.06;5177959;27;20046;-74
2023/12/22 01:33:55;;;;;;;6.63;1.20;;;;;;;5.00;100.00;100297.72;5178458;27;20043;-74
2023/12/22 01:36:21;;;;;;;8.65;1.20;;;;;;;5.00;100.00;100297.72;5177662;27;20053;-74
2023/12/22 01:38:48;;;;;;;8.35;1.98;;;;;;;4.98;100.00;100295.50;5178025;27;23233;-74
2023/12/22 01:41:14;;;;;;;5.05;1.27;;;;;;;4.95;100.00;100291.03;5178428;27;20492;-74
2023/12/22 01:43:41;;;;;;;5.13;1.15;;;;;;;4.93;100.00;100301.25;5177720;27;20050;-75
2023/12/22 01:46:09;;;;;;;7.45;1.30;;;;;;;4.92;100.00;100299.75;5178249;27;20043;-74
2023/12/22 01:48:36;;;;;;;7.22;1.33;;;;;;;4.90;100.00;100291.50;5178371;27;20039;-74
2023/12/22 01:51:04;;;;;;;10.98;1.67;;;;;;;4.91;100.00;100287.72;5178374;27;20085;-75
2023/12/22 01:53:32;;;;;;;4.10;1.30;;;;;;;4.89;100.00;100286.66;5178099;27;20459;-75
2023/12/22 01:56:01;;;;;;;6.65;1.38;;;;;;;4.84;100.00;100282.59;5177920;27;20070;-75
2023/12/22 01:58:31;;;;;;;6.18;1.30;;;;;;;4.82;100.00;100290.19;5174044;27;20508;-75
2023/12/22 02:01:04;;;;;;;7.32;1.35;;;;;;;4.79;100.00;100306.09;5154732;27;20066;-74
2023/12/22 02:03:31;;;;;;;8.30;1.48;;;;;;;4.77;100.00;100303.88;5177459;27;20039;-74
2023/12/22 02:05:58;;;;;;;5.95;1.40;;;;;;;4.77;100.00;100295.97;5176197;27;20134;-74
2023/12/22 02:08:26;;;;;;;5.88;1.55;;;;;;;4.78;100.00;100292.19;5177514;27;20817;-74
2023/12/22 02:10:53;;;;;;;5.43;1.35;;;;;;;4.80;100.00;100295.13;5178316;27;20038;-74
2023/12/22 02:13:20;;;;;;;6.05;1.40;;;;;;;4.83;100.00;100294.31;5177287;27;20723;-74
2023/12/22 02:15:50;;;;;;;6.10;1.27;;;;;;;4.87;100.00;100283.69;5177690;27;20738;-74
2023/12/22 02:18:24;;;;;;;10.73;1.65;;;;;;;4.90;100.00;100288.88;5177288;27;20520;-74
2023/12/22 02:20:52;;;;;;;5.65;1.30;;;;;;;4.92;100.00;100276.03;5177545;27;20039;-74
2023/12/22 02:23:19;;;;;;;17.08;2.35;;;;;;;4.93;100.00;100280.16;5178430;27;20525;-74
2023/12/22 02:25:45;;;;;;;7.32;1.48;;;;;;;4.92;100.00;100265.47;5177456;27;20046;-74
2023/12/22 02:28:18;;;;;;;9.25;3.22;;;;;;;4.91;100.00;100252.69;5177153;27;20490;-74
2023/12/22 02:30:56;;;;;;;14.70;2.00;;;;;;;4.92;100.00;100268.09;5178231;27;20567;-74
2023/12/22 02:33:24;;;;;;;10.65;1.67;;;;;;;4.91;100.00;100265.88;5158251;27;20039;-74
2023/12/22 02:35:55;;;;;;;9.05;2.08;;;;;;;4.92;100.00;100265.47;5159313;27;20031;-74
2023/12/22 02:38:23;;;;;;;;;;;;;;;4.94;100.00;100265.06;5177475;27;20043;-74
2023/12/22 02:40:50;;;;;;;10.27;2.28;;;;;;;4.94;100.00;100255.25;5176898;27;19981;-74
2023/12/22 02:43:16;;;;;;;16.58;2.20;;;;;;;4.95;100.00;100256.75;5177404;27;20453;-74
2023/12/22 02:45:43;;;;;;;14.93;2.20;;;;;;;4.97;100.00;100235.97;5177020;27;20497;-74
2023/12/22 02:48:10;;;;;;;13.25;2.58;;;;;;;5.00;100.00;100242.31;5177252;27;20041;-74
2023/12/22 02:50:37;;;;;;;15.82;2.13;;;;;;;5.07;100.00;100247.44;5177346;27;20544;-74
2023/12/22 02:53:04;;;;;;;15.02;2.10;;;;;;;5.11;100.00;100245.44;5159454;27;20467;-75
2023/12/22 02:55:30;;;;;;;12.35;2.30;;;;;;;5.18;100.00;100247.19;5176802;27;20051;-75
2023/12/22 02:57:57;;;;;;;15.18;3.08;;;;;;;5.21;100.00;100248.97;5176650;27;20053;-75
2023/12/22 03:00:24;;;;;;;10.10;2.30;;;;;;;5.24;100.00;100242.88;5176717;27;20042;-74
2023/12/22 03:02:50;;;;;;;10.98;2.03;;;;;;;5.28;100.00;100257.47;5177572;27;20501;-74
2023/12/22 03:05:16;;;;;;;12.13;2.00;;;;;;;5.33;100.00;100250.94;5176738;27;20726;-75
2023/12/22 03:07:43;;;;;;;9.90;1.70;;;;;;;5.38;100.00;100262.91;5175785;27;20074;-75
2023/12/22 03:10:10;;;;;;;16.27;2.70;;;;;;;5.38;100.00;100266.28;5177872;27;20158;-75
2023/12/22 03:12:36;;;;;;;14.05;2.33;;;;;;;5.39;100.00;100262.47;5176892;27;20054;-75
2023/12/22 03:15:04;;;;;;;11.75;2.30;;;;;;;5.43;100.00;100260.50;5176541;27;20051;-75
2023/12/22 03:17:31;;;;;;;11.05;2.58;;;;;;;5.49;100.00;100287.16;5176540;27;20121;-75
2023/12/22 03:19:57;;;;;;;17.25;2.33;;;;;;;5.56;100.00;100273.78;5176576;27;20107;-75
2023/12/22 03:22:24;;;;;;;17.30;2.65;;;;;;;5.62;100.00;100269.44;5176202;27;20122;-75
2023/12/22 03:24:50;;;;;;;7.75;1.73;;;;;;;5.69;100.00;100275.28;5176591;27;20095;-75
2023/12/22 03:27:18;;;;;;;16.23;2.70;;;;;;;5.74;100.00;100289.16;5176855;27;20049;-75
2023/12/22 03:29:44;;;;;;;23.67;2.92;;;;;;;5.77;100.00;100283.03;5175959;27;20042;-74
2023/12/22 03:32:11;;;;;;;13.05;2.05;;;;;;;5.81;100.00;100281.03;5175839;27;20042;-74
2023/12/22 03:34:37;;;;;;;18.33;2.53;;;;;;;5.87;99.59;100271.47;5174758;27;20039;-74
2023/12/22 03:37:04;;;;;;;18.58;2.60;;;;;;;5.92;99.22;100294.75;5176937;27;20493;-74
2023/12/22 03:39:30;;;;;;;6.43;1.75;;;;;;;5.96;97.90;100287.47;5175685;27;20845;-75
2023/12/22 03:41:57;;;;;;;11.70;2.72;;;;;;;6.04;96.35;100304.59;5176266;27;20035;-74
2023/12/22 03:44:24;;;;;;;10.35;1.98;;;;;;;6.06;95.97;100307.56;5176651;27;20046;-74
2023/12/22 03:46:52;;;;;;;6.68;1.63;;;;;;;6.01;97.89;100353.00;5176266;27;20060;-74
2023/12/22 03:49:19;;;;;;;8.48;1.52;;;;;;;5.77;99.76;100360.38;5175818;27;20043;-73
2023/12/22 03:51:46;;;;;;;4.78;1.02;;;;;;;5.53;100.00;100336.06;5175875;27;20624;-74
2023/12/22 03:54:12;;;;;;;4.78;1.02;;;;;;;5.40;100.00;100334.50;5176325;27;20485;-73
2023/12/22 03:56:39;;;;;;;6.32;1.55;;;;;;;5.29;100.00;100340.75;5175712;27;20043;-74
2023/12/22 03:59:05;;;;;;;5.45;1.30;;;;;;;5.22;100.00;100338.28;5175926;27;20038;-74
2023/12/22 04:01:32;;;;;;;2.10;0.90;;;;;;;5.19;100.00;100333.84;5175839;27;20119;-74
2023/12/22 04:03:59;;;;;;;5.22;0.95;;;;;;;5.16;100.00;100344.50;5175810;27;20085;-73
2023/12/22 04:06:26;;;;;;;6.57;0.70;;;;;;;5.12;100.00;100320.81;5175419;27;20074;-74
2023/12/22 04:08:53;;;;;;;6.22;1.05;;;;;;;5.12;100.00;100325.34;5176266;27;20050;-74
2023/12/22 04:11:19;;;;;;;4.70;1.05;;;;;;;5.10;100.00;100325.75;5175588;27;20038;-75
2023/12/22 04:13:46;;;;;;;4.18;0.98;;;;;;;5.10;100.00;100323.13;5175253;27;20034;-74
2023/12/22 04:16:13;;;;;;;6.10;1.40;;;;;;;5.11;100.00;100327.25;5153135;27;20496;-74
2023/12/22 04:18:39;;;;;;;3.40;1.33;;;;;;;5.12;100.00;100326.09;5175639;27;20070;-74
2023/12/22 04:21:06;;;;;;;12.05;1.38;;;;;;;5.15;100.00;100327.16;5175769;27;20045;-74
2023/12/22 04:23:32;;;;;;;8.77;1.63;;;;;;;5.15;100.00;100329.81;5174314;27;20130;-74
2023/12/22 04:25:59;;;;;;;11.10;1.70;;;;;;;5.16;100.00;100333.94;5157220;27;20155;-74
2023/12/22 04:28:26;;;;;;;7.65;1.60;;;;;;;5.17;100.00;100344.06;5174842;27;20510;-74
2023/12/22 04:30:52;;;;;;;5.45;1.40;;;;;;;5.16;100.00;100339.94;5175152;27;20719;-75
2023/12/22 04:33:19;;;;;;;4.78;1.45;;;;;;;5.16;100.00;100336.56;5175618;27;20585;-74
2023/12/22 04:35:46;;;;;;;9.90;1.77;;;;;;;5.15;100.00;100335.09;5175534;27;20047;-74
2023/12/22 04:38:12;;;;;;;12.10;1.60;;;;;;;5.15;100.00;100333.19;5157028;27;20402;-74
2023/12/22 04:40:39;;;;;;;8.13;1.75;;;;;;;5.16;100.00;100321.47;5175312;27;20047;-74
2023/12/22 04:43:05;;;;;;;13.68;1.92;;;;;;;5.16;100.00;100326.00;5176030;27;20043;-74
2023/12/22 04:45:32;;;;;;;9.00;2.10;;;;;;;5.15;100.00;100333.19;5175054;27;20053;-74
2023/12/22 04:47:58;;;;;;;5.90;1.67;;;;;;;5.15;100.00;100325.28;5175029;27;20053;-74
2023/12/22 04:50:25;;;;;;;6.50;1.50;;;;;;;5.17;100.00;100335.41;5174997;27;20746;-74
2023/12/22 04:52:51;;;;;;;11.52;2.25;;;;;;;5.18;100.00;100342.19;5176070;27;20046;-74
2023/12/22 04:55:18;;;;;;;12.70;1.52;;;;;;;5.19;100.00;100343.66;5175707;27;20070;-74
2023/12/22 04:57:45;;;;;;;13.30;1.67;;;;;;;5.23;100.00;100345.03;5174362;27;20042;-74
2023/12/22 05:00:12;;;;;;;8.02;2.25;;;;;;;5.24;100.00;100330.69;5175766;27;20608;-74
2023/12/22 05:02:39;;;;;;;9.75;2.15;;;;;;;5.26;100.00;100338.94;5175118;27;20104;-74
2023/12/22 05:05:08;;;;;;;11.82;2.10;;;;;;;5.28;100.00;100334.00;5175344;27;20042;-74
2023/12/22 05:07:34;;;;;;;10.25;2.20;;;;;;;5.28;100.00;100335.91;5175226;27;20146;-74
2023/12/22 05:10:01;;;;;;;20.30;2.10;;;;;;;5.30;100.00;100330.94;5174565;27;20045;-74
2023/12/22 05:12:27;;;;;;;11.18;1.95;;;;;;;5.32;100.00;100329.38;5174254;27;20160;-74
2023/12/22 05:14:54;;;;;;;18.52;2.30;;;;;;;5.36;100.00;100319.50;5175588;27;20078;-74
2023/12/22 05:17:21;;;;;;;15.70;2.65;;;;;;;5.40;100.00;100326.59;5174973;27;20054;-74
2023/12/22 05:19:47;;;;;;;16.52;2.67;;;;;;;5.45;100.00;100320.81;5175313;27;20487;-74
2023/12/22 05:22:14;;;;;;;18.38;2.78;;;;;;;5.48;100.00;100314.69;5174736;27;20080;-74
2023/12/22 05:24:40;;;;;;;7.18;1.70;;;;;;;5.53;100.00;100303.66;5176243;27;20039;-74
2023/12/22 05:27:07;;;;;;;15.30;2.58;;;;;;;5.66;100.00;100299.16;5179827;27;20047;-74
2023/12/22 05:29:33;;;;;;;14.73;1.63;;;;;;;5.73;100.00;100314.81;5178442;27;20030;-74
2023/12/22 05:32:00;;;;;;;15.27;2.47;;;;;;;5.80;100.00;100327.84;5179210;27;20854;-74
2023/12/22 05:34:27;;;;;;;7.30;1.63;;;;;;;5.85;100.00;100327.34;5175689;27;20053;-74
2023/12/22 05:36:53;;;;;;;12.20;2.00;;;;;;;5.91;100.00;100304.59;5179350;27;20061;-74
2023/12/22 05:39:20;;;;;;;15.77;1.92;;;;;;;5.96;100.00;100311.25;5177762;27;20038;-74
2023/12/22 05:41:46;;;;;;;14.85;2.30;;;;;;;5.97;100.00;100304.81;5179048;27;20031;-74
2023/12/22 05:44:13;;;;;;;12.55;2.03;;;;;;;5.99;100.00;100305.13;5178624;27;20130;-73
2023/12/22 05:46:39;;;;;;;10.43;2.05;;;;;;;6.05;100.00;100313.28;5178023;27;20051;-73
2023/12/22 05:49:06;;;;;;;6.35;1.75;;;;;;;6.10;100.00;100312.75;5159020;27;20049;-73
2023/12/22 05:51:38;;;;;;;9.75;2.10;;;;;;;6.14;100.00;100316.06;5178775;27;20467;-73
2023/12/22 05:54:06;;;;;;;13.95;2.20;;;;;;;6.18;100.00;100311.41;5178234;27;20039;-73
2023/12/22 05:56:33;;;;;;;11.10;2.47;;;;;;;6.22;100.00;100299.59;5177642;27;20043;-74
2023/12/22 05:59:00;;;;;;;5.20;1.67;;;;;;;6.27;100.00;100322.88;5178247;27;20039;-74
2023/12/22 06:01:27;;;;;;;7.80;1.95;;;;;;;6.30;100.00;100321.28;5177718;27;20714;-74
2023/12/22 06:03:54;;;;;;;7.70;1.77;;;;;;;6.30;100.00;100313.34;5177668;27;20042;-74
2023/12/22 06:06:21;;;;;;;10.75;2.08;;;;;;;6.30;100.00;100318.66;5177620;27;20050;-74
2023/12/22 06:08:48;;;;;;;7.15;2.25;;;;;;;6.32;100.00;100305.75;5177954;27;20532;-74
2023/12/22 06:11:14;;;;;;;7.03;2.08;;;;;;;6.34;100.00;100311.38;5177272;27;20045;-74
2023/12/22 06:13:41;;;;;;;10.80;1.88;;;;;;;6.34;100.00;100300.78;5177317;27;20093;-74
2023/12/22 06:16:14;;;;;;;10.60;2.13;;;;;;;6.37;100.00;100307.88;5177892;27;20046;-74
2023/12/22 06:18:42;;;;;;;8.40;2.05;;;;;;;6.44;100.00;100306.91;5178055;27;20114;-74
2023/12/22 06:21:10;;;;;;;11.18;1.83;;;;;;;6.46;100.00;100307.97;5178008;27;20043;-74
2023/12/22 06:23:37;;;;;;;12.10;2.45;;;;;;;6.49;100.00;100311.69;5177592;27;20043;-74
2023/12/22 06:26:12;;;;;;;13.35;2.40;;;;;;;6.54;100.00;100317.19;5178006;27;20543;-74
2023/12/22 06:28:39;;;;;;;10.25;1.95;;;;;;;6.55;100.00;100313.38;5177458;27;20073;-74
2023/12/22 06:31:18;;;;;;;7.95;2.42;;;;;;;6.57;100.00;100308.44;5178111;27;20117;-74
2023/12/22 06:33:45;;;;;;;11.80;2.10;;;;;;;6.59;100.00;100308.00;5177282;27;20050;-74
2023/12/22 06:36:22;;;;;;;5.35;1.48;;;;;;;6.64;100.00;100304.84;5177041;27;20039;-75
2023/12/22 06:38:49;;;;;;;15.25;2.10;;;;;;;6.66;100.00;100313.09;5178448;27;20050;-75
2023/12/22 06:41:28;;;;;;;15.52;2.92;;;;;;;6.71;100.00;100298.59;5177195;27;20574;-75
2023/12/22 06:43:56;;;;;;;13.70;2.40;;;;;;;6.71;100.00;100296.69;5177210;27;20043;-75
2023/12/22 06:46:27;;;;;;;12.13;2.17;;;;;;;6.74;100.00;100303.06;5176077;27;20056;-75
2023/12/22 06:48:55;;;;;;;19.73;2.63;;;;;;;6.77;100.00;100305.59;5176074;27;20486;-75
2023/12/22 06:51:27;;;;;;;10.02;2.20;;;;;;;6.81;100.00;100297.53;5176636;27;20125;-75
2023/12/22 06:53:55;;;;;;;14.93;3.13;;;;;;;6.83;100.00;100314.47;5177028;27;20567;-75
2023/12/22 06:56:23;;;;;;;9.93;2.58;;;;;;;6.87;100.00;100295.84;5176944;27;20131;-75
2023/12/22 06:58:52;;;;;;;12.65;2.42;;;;;;;6.87;100.00;100312.44;5176484;27;20480;-74
2023/12/22 07:01:29;;;;;;;13.52;2.83;;;;;;;6.90;100.00;100303.66;5177133;27;20066;-76
2023/12/22 07:03:57;;;;;;;17.30;3.05;;;;;;;6.90;100.00;100295.72;5177734;27;20103;-75
2023/12/22 07:06:27;;;;;;;11.75;2.42;;;;;;;6.93;100.00;100294.88;5176866;27;20078;-75
2023/12/22 07:09:12;;;;;;;13.82;2.72;;;;;;;6.97;100.00;100294.78;5176966;27;20042;-75
2023/12/22 07:11:50;;;;;;;14.75;2.95;;;;;;;6.99;100.00;100290.53;5173608;27;20047;-75
2023/12/22 07:14:17;;;;;;;14.68;2.80;;;;;;;7.01;100.00;100285.56;5175933;27;20054;-75
2023/12/22 07:16:44;;;;;;;10.63;3.00;;;;;;;7.05;100.00;100284.72;5177315;27;20064;-75
2023/12/22 07:19:13;;;;;;;11.85;2.70;;;;;;;7.03;100.00;100293.09;5176888;27;20047;-75
2023/12/22 07:21:40;;;;;;;15.68;2.80;;;;;;;7.07;100.00;100300.91;5176936;27;20413;-75
2023/12/22 07:24:10;;;;;;;16.88;2.70;;;;;;;7.10;100.00;100300.81;5177292;27;20038;-75
2023/12/22 07:26:36;;;;;;;17.70;3.47;;;;;;;7.15;100.00;100307.47;5176226;27;20042;-75
2023/12/22 07:29:04;;;;;;;18.00;2.90;;;;;;;7.15;100.00;100316.16;5176772;27;20046;-75
2023/12/22 07:31:30;;;;;;;14.35;3.25;;;;;;;7.16;100.00;100308.97;5176513;27;20413;-75
2023/12/22 07:33:57;;;;;;;16.77;3.47;;;;;;;7.20;100.00;100317.50;5177029;27;20490;-76
2023/12/22 07:36:23;;;;;;;20.20;3.60;;;;;;;7.22;100.00;100315.91;5175637;27;20043;-75
2023/12/22 07:38:50;;;;;;;17.23;3.33;;;;;;;7.24;100.00;100315.50;5175972;27;20043;-75
2023/12/22 07:41:16;;;;;;;19.02;3.25;;;;;;;7.23;100.00;100308.72;5176295;27;20527;-75
2023/12/22 07:43:44;;;;;;;17.15;2.95;;;;;;;7.25;100.00;100312.41;5172879;27;20075;-76
2023/12/22 07:46:18;;;;;;;16.92;3.08;;;;;;;7.29;100.00;100315.69;5176606;27;20130;-75
2023/12/22 07:48:45;;;;;;;17.13;2.40;;;;;;;7.30;100.00;100329.69;5172676;27;20105;-74
2023/12/22 07:51:12;;;;;;;14.15;3.17;;;;;;;7.21;100.00;100309.13;5175917;27;20485;-74
2023/12/22 07:53:38;;;;;;;14.60;1.90;;;;;;;7.12;100.00;100303.03;5172533;27;20038;-74
2023/12/22 07:56:06;;;;;;;15.35;2.70;;;;;;;7.03;100.00;100304.41;5176185;27;20122;-75
2023/12/22 07:58:34;;;;;;;13.50;3.03;;;;;;;6.97;100.00;100300.81;5175980;27;20051;-76
2023/12/22 08:01:01;;;;;;;20.65;2.42;;;;;;;6.94;100.00;100301.66;5176360;27;20091;-75
2023/12/22 08:03:28;;;;;;;10.05;2.08;;;;;;;6.90;100.00;100324.09;5155751;27;20520;-75
2023/12/22 08:05:55;;;;;;;12.50;3.10;;;;;;;6.87;100.00;100325.69;5176282;27;20046;-76
2023/12/22 08:08:22;;;;;;;15.80;3.20;;;;;;;6.87;100.00;100322.28;5175479;27;20050;-76
2023/12/22 08:10:49;;;;;;;12.40;2.58;;;;;;;6.86;100.00;100328.75;5176074;27;20387;-75
2023/12/22 08:13:17;;;;;;;21.40;3.67;;;;;;;6.85;100.00;100325.38;5175631;27;20043;-76
2023/12/22 08:15:44;;;;;;;21.02;3.28;;;;;;;6.87;100.00;100311.72;5171783;27;20144;-75
2023/12/22 08:18:11;;;;;;;19.10;3.25;;;;;;;6.91;100.00;100309.69;5174762;27;20042;-75
2023/12/22 08:20:38;;;;;;;24.38;3.72;;;;;;;6.94;100.00;100322.09;5176269;27;20511;-75
2023/12/22 08:23:09;;;;;;;22.67;3.38;;;;;;;6.99;100.00;100313.63;5175991;27;20178;-75
2023/12/22 08:25:41;;;;;;;24.52;3.63;;;;;;;7.01;100.00;100306.00;5175822;27;20066;-75
2023/12/22 08:28:08;;;;;;;20.42;3.63;;;;;;;7.03;100.00;100298.38;5175088;27;20042;-75
2023/12/22 08:30:34;;;;;;;24.13;2.80;;;;;;;7.06;100.00;100291.50;5175818;27;20046;-75
2023/12/22 08:33:01;;;;;;;17.50;2.65;;;;;;;7.06;100.00;100286.19;5175642;27;20843;-74
2023/12/22 08:35:28;;;;;;;11.48;2.45;;;;;;;7.06;100.00;100281.66;5175552;27;20074;-77
2023/12/22 08:37:54;;;;;;;16.35;2.58;;;;;;;7.05;100.00;100280.16;5175598;27;20034;-75
2023/12/22 08:40:25;;;;;;;11.38;1.73;;;;;;;7.04;100.00;100278.69;5175207;27;20482;-75
2023/12/22 08:42:59;;;;;;;8.43;1.75;;;;;;;7.03;100.00;100285.16;5175083;27;20524;-74
2023/12/22 08:45:28;;;;;;;6.25;1.50;;;;;;;7.05;100.00;100268.84;5175593;27;20586;-74
2023/12/22 08:47:55;;;;;;;6.22;2.03;;;;;;;7.06;100.00;100271.06;5175333;27;20052;-75
2023/12/22 08:50:22;;;;;;;6.35;1.65;;;;;;;7.07;100.00;100269.91;5176106;27;20092;-77
2023/12/22 08:52:49;;;;;;;6.25;1.80;;;;;;;7.09;100.00;100275.50;5176160;27;20134;-74
2023/12/22 08:55:16;;;;;;;8.32;1.80;;;;;;;7.14;100.00;100276.88;5175815;27;20038;-75
2023/12/22 08:57:42;;;;;;;12.10;1.98;;;;;;;7.19;100.00;100261.19;5175244;27;20807;-75
2023/12/22 09:00:22;;;;;;;9.55;2.35;;;;;;;7.23;100.00;100274.28;5171878;27;20046;-76
2023/12/22 09:02:48;;;;;;;15.90;2.33;;;;;;;7.27;100.00;100272.28;5174554;27;20039;-76
2023/12/22 09:05:15;;;;;;;8.55;2.05;;;;;;;7.31;100.00;100260.41;5175391;27;20050;-76
2023/12/22 09:07:42;;;;;;;15.75;2.95;;;;;;;7.38;100.00;100277.25;5174742;27;20047;-76
2023/12/22 09:10:08;;;;;;;12.48;2.33;;;;;;;7.44;100.00;100270.22;5176018;27;20066;-75
2023/12/22 09:12:35;;;;;;;10.45;2.63;;;;;;;7.47;100.00;100280.72;5178972;27;20063;-75
2023/12/22 09:15:03;;;;;;;16.08;2.72;;;;;;;7.51;100.00;100272.66;5178591;27;20054;-75
2023/12/22 09:17:30;;;;;;;16.08;2.60;;;;;;;7.52;100.00;100269.56;5177894;27;20448;-75
2023/12/22 09:19:56;;;;;;;10.98;2.60;;;;;;;7.53;100.00;100268.41;5179400;27;20043;-75
2023/12/22 09:22:23;;;;;;;8.63;2.05;;;;;;;7.54;100.00;100277.84;5178086;27;20046;-75
2023/12/22 09:24:49;;;;;;;3.58;1.40;;;;;;;7.48;100.00;100281.44;5178609;27;20035;-75
2023/12/22 09:27:16;;;;;;;4.38;1.00;;;;;;;7.40;100.00;100293.44;5178855;27;20054;-75
2023/12/22 09:29:43;;;;;;;2.22;0.70;;;;;;;7.29;100.00;100285.81;5179101;27;20125;-75
2023/12/22 09:32:09;;;;;;;1.20;0.50;;;;;;;7.20;100.00;100280.44;5179003;27;20095;-75
2023/12/22 09:34:36;;;;;;;1.85;0.50;;;;;;;7.12;100.00;100305.69;5178572;27;20039;-75
2023/12/22 09:37:03;;;;;;;2.10;0.63;;;;;;;7.07;100.00;100301.66;5160027;27;20386;-74
2023/12/22 09:39:29;;;;;;;2.25;0.63;;;;;;;6.94;100.00;100283.13;5177966;27;20094;-75
2023/12/22 09:41:56;;;;;;;0.68;0.20;;;;;;;6.90;100.00;100290.44;5178919;27;20046;-75
2023/12/22 09:44:24;;;;;;;2.40;0.35;;;;;;;6.87;100.00;100283.34;5173708;27;20569;-75
2023/12/22 09:46:52;;;;;;;2.30;0.50;;;;;;;6.85;100.00;100290.22;5178084;27;20449;-75
2023/12/22 09:49:21;;;;;;;3.35;0.50;;;;;;;6.86;100.00;100275.81;5178391;27;20047;-76
2023/12/22 09:51:49;;;;;;;1.23;0.50;;;;;;;6.89;100.00;100272.34;5177898;27;20047;-76
2023/12/22 09:54:16;;;;;;;3.63;1.00;;;;;;;6.94;100.00;100271.81;5178167;27;20077;-76
2023/12/22 09:56:44;;;;;;;4.97;0.98;;;;;;;6.99;100.00;100272.00;5178089;27;20043;-76
2023/12/22 09:59:12;;;;;;;5.85;1.27;;;;;;;7.06;100.00;100271.06;5178453;27;20145;-76
2023/12/22 10:01:47;;;;;;;5.28;1.38;;;;;;;7.13;100.00;100262.91;5178746;27;20034;-76
2023/12/22 10:04:14;;;;;;;5.63;1.27;;;;;;;7.22;100.00;100267.53;5179120;27;20056;-76
2023/12/22 10:06:42;;;;;;;4.63;1.33;;;;;;;7.32;100.00;100269.09;5179982;27;20054;-76
2023/12/22 10:09:11;;;;;;;5.25;1.30;;;;;;;7.40;100.00;100273.00;5179857;27;20096;-77
2023/12/22 10:11:39;;;;;;;12.00;1.88;;;;;;;7.50;100.00;100269.25;5182651;27;20041;-75
2023/12/22 10:14:06;;;;;;;7.18;1.50;;;;;;;7.57;100.00;100276.25;5183393;27;20926;-74
2023/12/22 10:16:33;;;;;;;4.32;1.65;;;;;;;7.67;100.00;100277.75;5181111;27;20042;-74
2023/12/22 10:19:00;;;;;;;8.70;1.55;;;;;;;7.75;100.00;100296.81;5181329;27;20046;-73
2023/12/22 10:21:26;;;;;;;9.50;1.35;;;;;;;7.79;100.00;100278.91;5173225;27;20046;-74
2023/12/22 10:23:53;;;;;;;10.35;1.60;;;;;;;7.82;100.00;100270.81;5177940;27;21146;-74
2023/12/22 10:26:20;;;;;;;8.13;1.48;;;;;;;7.84;100.00;100281.72;5177695;27;20043;-74
2023/12/22 10:28:48;;;;;;;7.15;1.67;;;;;;;7.87;100.00;100290.72;5177475;27;20129;-74
2023/12/22 10:31:14;;;;;;;4.90;1.75;;;;;;;7.89;100.00;100275.16;5158764;27;20047;-74
2023/12/22 10:33:43;;;;;;;5.20;1.63;;;;;;;7.90;100.00;100266.75;5177379;27;20560;-74
2023/12/22 10:36:10;;;;;;;7.43;1.63;;;;;;;7.93;100.00;100267.81;5177918;27;20505;-75
2023/12/22 10:38:36;;;;;;;6.75;2.00;;;;;;;7.98;100.00;100275.22;5177798;27;20050;-75
2023/12/22 10:41:05;;;;;;;5.00;1.60;;;;;;;8.04;100.00;100284.06;5178301;27;20051;-76
2023/12/22 10:43:39;;;;;;;6.88;1.48;;;;;;;8.09;100.00;100294.09;5173205;27;20047;-75
2023/12/22 10:46:11;;;;;;;9.93;1.70;;;;;;;8.11;100.00;100291.75;5174787;27;20050;-75
2023/12/22 10:48:39;;;;;;;7.68;1.50;;;;;;;8.13;100.00;100302.69;5177095;27;20050;-75
2023/12/22 10:51:10;;;;;;;4.13;1.48;;;;;;;8.15;100.00;100300.34;5174617;27;20034;-75
2023/12/22 10:53:40;;;;;;;5.07;1.38;;;;;;;8.20;100.00;100291.09;5176981;27;20035;-75
2023/12/22 10:56:07;;;;;;;4.75;1.33;;;;;;;8.23;100.00;100308.78;5177547;27;20046;-75
2023/12/22 10:58:35;;;;;;;8.90;2.00;;;;;;;8.27;100.00;100280.97;5178364;27;20050;-76
2023/12/22 11:01:03;;;;;;;6.00;1.50;;;;;;;8.32;100.00;100277.03;5178116;27;20042;-75
2023/12/22 11:03:33;;;;;;;8.52;1.85;;;;;;;8.32;100.00;100285.75;5157838;27;20050;-76
2023/12/22 11:06:03;;;;;;;6.85;1.40;;;;;;;8.32;100.00;100267.19;5173977;27;20046;-76
2023/12/22 11:08:32;;;;;;;5.50;1.20;;;;;;;8.34;100.00;100272.06;5176354;27;20124;-75
2023/12/22 11:11:06;;;;;;;7.25;1.50;;;;;;;8.42;100.00;100288.41;5177508;27;20486;-76
2023/12/22 11:13:33;;;;;;;4.53;1.77;;;;;;;8.45;100.00;100272.38;5173074;27;20066;-76
2023/12/22 11:16:01;;;;;;;5.70;1.15;;;;;;;8.49;100.00;100280.22;5176736;27;20549;-76
2023/12/22 11:18:29;;;;;;;5.80;1.33;;;;;;;8.51;100.00;100270.63;5177121;27;20506;-75
2023/12/22 11:20:56;;;;;;;5.05;1.27;;;;;;;8.53;100.00;100273.59;5176495;27;20130;-76
2023/12/22 11:23:24;;;;;;;7.30;1.60;;;;;;;8.57;100.00;100276.13;5176802;27;20460;-76